createdAt,value
2018-06-20T00:00:29.104Z,63.07
2018-06-20T00:02:55.064Z,62.38
2018-06-20T00:05:21.053Z,62.84
2018-06-20T00:07:47.066Z,62.44
2018-06-20T00:10:13.027Z,62.51
2018-06-20T00:12:39.005Z,63.07
2018-06-20T00:15:04.978Z,62.55
2018-06-20T00:17:31.023Z,63.21
2018-06-20T00:19:56.976Z,62.53
2018-06-20T00:22:22.947Z,63.21
2018-06-20T00:24:48.923Z,63.04
2018-06-20T00:27:14.923Z,62.50
2018-06-20T00:29:40.893Z,62.23
2018-06-20T00:32:06.904Z,62.52
2018-06-20T00:34:32.931Z,63.20
2018-06-20T00:36:58.894Z,63.27
2018-06-20T00:39:24.864Z,63.00
2018-06-20T00:41:50.841Z,62.68
2018-06-20T00:44:16.819Z,63.43
2018-06-20T00:46:42.780Z,63.11
2018-06-20T00:49:08.753Z,63.01
2018-06-20T00:51:34.727Z,63.04
2018-06-20T00:54:00.707Z,62.73
2018-06-20T00:56:26.680Z,63.33
2018-06-20T00:58:52.648Z,62.25
2018-06-20T01:01:18.603Z,62.45
2018-06-20T01:03:44.604Z,62.58
2018-06-20T01:06:10.562Z,62.52
2018-06-20T01:08:36.547Z,62.34
2018-06-20T01:11:02.502Z,63.36
2018-06-20T01:13:28.462Z,62.83
2018-06-20T01:15:54.436Z,62.80
2018-06-20T01:18:20.395Z,62.62
2018-06-20T01:20:46.356Z,63.19
2018-06-20T01:23:12.330Z,62.92
2018-06-20T01:25:38.289Z,63.06
2018-06-20T01:28:04.284Z,62.93
2018-06-20T01:30:30.266Z,62.45
2018-06-20T01:32:56.256Z,63.74
2018-06-20T01:35:22.217Z,63.37
2018-06-20T01:37:48.201Z,62.33
2018-06-20T01:40:14.156Z,62.21
2018-06-20T01:42:40.129Z,62.65
2018-06-20T01:45:06.083Z,62.53
2018-06-20T01:47:32.094Z,63.47
2018-06-20T01:49:58.069Z,62.68
2018-06-20T01:52:24.037Z,62.59
2018-06-20T01:54:50.036Z,63.35
2018-06-20T01:57:16.038Z,63.19
2018-06-20T01:59:42.006Z,62.56
2018-06-20T02:02:07.984Z,62.84
2018-06-20T02:04:33.972Z,63.53
2018-06-20T02:06:59.932Z,63.25
2018-06-20T02:09:25.899Z,62.86
2018-06-20T02:11:51.844Z,62.57
2018-06-20T02:14:17.841Z,62.96
2018-06-20T02:16:43.889Z,62.95
2018-06-20T02:19:09.840Z,63.54
2018-06-20T02:21:35.816Z,63.25
2018-06-20T02:24:01.790Z,63.20
2018-06-20T02:26:27.760Z,62.80
2018-06-20T02:28:53.729Z,63.68
2018-06-20T02:31:19.752Z,62.41
2018-06-20T02:33:45.706Z,63.97
2018-06-20T02:36:11.692Z,62.51
2018-06-20T02:38:37.662Z,63.41
2018-06-20T02:41:03.643Z,63.37
2018-06-20T02:43:29.605Z,62.54
2018-06-20T02:45:55.577Z,62.62
2018-06-20T02:48:21.535Z,62.22
2018-06-20T02:50:47.589Z,63.12
2018-06-20T02:53:13.585Z,62.89
2018-06-20T02:55:39.553Z,62.65
2018-06-20T02:58:05.528Z,63.63
2018-06-20T03:00:31.482Z,62.80
2018-06-20T03:02:57.474Z,63.50
2018-06-20T03:05:23.442Z,63.46
2018-06-20T03:07:49.412Z,63.25
2018-06-20T03:10:15.404Z,62.52
2018-06-20T03:12:41.363Z,62.47
2018-06-20T03:15:07.340Z,63.21
2018-06-20T03:17:33.289Z,62.81
2018-06-20T03:19:59.262Z,62.39
2018-06-20T03:22:25.254Z,63.34
2018-06-20T03:24:51.242Z,62.69
2018-06-20T03:27:17.248Z,63.39
2018-06-20T03:29:43.215Z,62.63
2018-06-20T03:32:09.174Z,63.66
2018-06-20T03:34:35.142Z,63.16
2018-06-20T03:37:01.125Z,62.32
2018-06-20T03:39:27.097Z,63.24
2018-06-20T03:41:53.050Z,63.04
2018-06-20T03:44:19.072Z,62.60
2018-06-20T03:46:45.047Z,63.21
2018-06-20T03:49:11.012Z,63.09
2018-06-20T03:51:37.006Z,62.71
2018-06-20T03:54:02.980Z,63.17
2018-06-20T03:56:28.987Z,63.79
2018-06-20T03:58:55.099Z,63.05
2018-06-20T04:01:21.073Z,63.31
2018-06-20T04:03:47.024Z,63.19
2018-06-20T04:06:13.001Z,62.89
2018-06-20T04:08:38.953Z,62.90
2018-06-20T04:11:04.936Z,63.40
2018-06-20T04:13:30.938Z,63.31
2018-06-20T04:15:56.868Z,63.70
2018-06-20T04:18:22.935Z,63.33
2018-06-20T04:20:48.882Z,62.90
2018-06-20T04:23:14.869Z,63.19
2018-06-20T04:25:40.901Z,62.60
2018-06-20T04:28:06.939Z,63.20
2018-06-20T04:30:32.827Z,63.65
2018-06-20T04:32:58.811Z,62.74
2018-06-20T04:35:24.779Z,63.13
2018-06-20T04:37:50.741Z,62.63
2018-06-20T04:40:16.760Z,63.81
2018-06-20T04:42:42.744Z,62.72
2018-06-20T04:45:08.733Z,63.28
2018-06-20T04:47:34.723Z,62.98
2018-06-20T04:50:00.881Z,62.74
2018-06-20T04:52:26.843Z,62.63
2018-06-20T04:54:52.819Z,63.40
2018-06-20T04:57:18.793Z,63.60
2018-06-20T04:59:44.749Z,63.04
2018-06-20T05:02:11.843Z,62.56
2018-06-20T05:04:37.803Z,63.69
2018-06-20T05:07:03.772Z,63.32
2018-06-20T05:09:29.782Z,63.63
2018-06-20T05:11:55.764Z,63.13
2018-06-20T05:14:21.750Z,63.63
2018-06-20T05:16:47.713Z,62.49
2018-06-20T05:19:13.665Z,63.27
2018-06-20T05:21:39.640Z,63.35
2018-06-20T05:24:05.665Z,63.10
2018-06-20T05:26:31.645Z,62.85
2018-06-20T05:28:57.625Z,63.59
2018-06-20T05:31:23.587Z,63.48
2018-06-20T05:33:49.562Z,63.17
2018-06-20T05:36:15.570Z,62.54
2018-06-20T05:38:41.571Z,62.63
2018-06-20T05:41:07.589Z,62.59
2018-06-20T05:43:33.564Z,63.00
2018-06-20T05:45:59.516Z,63.13
2018-06-20T05:48:25.523Z,63.19
2018-06-20T05:50:51.497Z,63.55
2018-06-20T05:53:17.476Z,63.69
2018-06-20T05:55:43.435Z,63.01
2018-06-20T05:58:09.501Z,63.66
2018-06-20T06:00:35.513Z,63.92
2018-06-20T06:03:01.492Z,63.87
2018-06-20T06:05:27.484Z,62.58
2018-06-20T06:07:53.442Z,63.70
2018-06-20T06:10:19.455Z,63.29
2018-06-20T06:12:45.417Z,62.47
2018-06-20T06:15:11.379Z,63.61
2018-06-20T06:17:37.351Z,63.09
2018-06-20T06:20:03.343Z,63.64
2018-06-20T06:22:29.333Z,62.41
2018-06-20T06:24:55.413Z,63.56
2018-06-20T06:27:21.419Z,63.55
2018-06-20T06:29:47.391Z,63.56
2018-06-20T06:32:13.340Z,63.67
2018-06-20T06:34:39.309Z,63.79
2018-06-20T06:37:05.299Z,63.47
2018-06-20T06:39:31.391Z,63.82
2018-06-20T06:41:57.409Z,63.90
2018-06-20T06:44:23.436Z,63.46
2018-06-20T06:46:49.410Z,63.84
2018-06-20T06:49:15.355Z,63.01
2018-06-20T06:51:41.316Z,63.87
2018-06-20T06:54:07.327Z,63.33
2018-06-20T06:56:33.315Z,63.41
2018-06-20T06:58:59.293Z,64.29
2018-06-20T07:01:25.282Z,64.21
2018-06-20T07:03:51.254Z,63.69
2018-06-20T07:06:17.243Z,63.33
2018-06-20T07:08:43.202Z,64.27
2018-06-20T07:11:09.164Z,63.57
2018-06-20T07:13:35.164Z,64.47
2018-06-20T07:16:01.137Z,63.82
2018-06-20T07:18:27.737Z,64.00
2018-06-20T07:20:54.272Z,63.18
2018-06-20T07:23:20.711Z,63.59
2018-06-20T07:25:46.668Z,62.85
2018-06-20T07:28:12.645Z,62.47
2018-06-20T07:30:40.816Z,62.72
2018-06-20T07:33:06.745Z,62.57
2018-06-20T07:35:32.750Z,63.69
2018-06-20T07:37:58.740Z,63.17
2018-06-20T07:40:24.712Z,63.18
2018-06-20T07:42:50.696Z,63.04
2018-06-20T07:45:16.674Z,62.81
2018-06-20T07:47:42.637Z,62.37
2018-06-20T07:50:08.617Z,62.29
2018-06-20T07:52:34.582Z,62.39
2018-06-20T07:55:00.599Z,62.18
2018-06-20T07:57:26.569Z,62.23
2018-06-20T07:59:52.561Z,61.99
2018-06-20T08:02:18.622Z,62.14
2018-06-20T08:04:44.594Z,62.02
2018-06-20T08:07:10.610Z,61.91
2018-06-20T08:09:36.595Z,62.97
2018-06-20T08:12:02.599Z,62.16
2018-06-20T08:14:28.560Z,62.59
2018-06-20T08:16:54.572Z,62.09
2018-06-20T08:19:20.565Z,62.67
2018-06-20T08:21:46.532Z,61.87
2018-06-20T08:24:12.503Z,61.46
2018-06-20T08:26:38.487Z,61.58
2018-06-20T08:29:04.457Z,61.20
2018-06-20T08:31:30.435Z,62.14
2018-06-20T08:33:56.487Z,61.07
2018-06-20T08:36:22.475Z,61.82
2018-06-20T08:38:48.467Z,61.61
2018-06-20T08:41:14.587Z,61.61
2018-06-20T08:43:40.569Z,61.57
2018-06-20T08:46:06.527Z,61.34
2018-06-20T08:48:32.509Z,61.82
2018-06-20T08:50:58.484Z,62.13
2018-06-20T08:53:24.523Z,62.24
2018-06-20T08:55:50.508Z,61.18
2018-06-20T08:58:16.476Z,61.22
2018-06-20T09:00:43.093Z,62.04
2018-06-20T09:03:10.062Z,61.35
2018-06-20T09:05:36.043Z,61.76
2018-06-20T09:08:02.030Z,61.45
2018-06-20T09:10:28.024Z,62.66
2018-06-20T09:12:53.974Z,62.26
2018-06-20T09:15:19.966Z,62.49
2018-06-20T09:17:45.927Z,61.93
2018-06-20T09:20:11.876Z,61.76
2018-06-20T09:22:37.870Z,63.66
2018-06-20T09:25:03.833Z,62.03
2018-06-20T09:27:29.858Z,62.10
2018-06-20T09:29:55.877Z,62.61
2018-06-20T09:32:21.841Z,62.48
2018-06-20T09:34:47.840Z,62.20
2018-06-20T09:37:13.813Z,62.82
2018-06-20T09:39:39.905Z,63.00
2018-06-20T09:42:05.852Z,62.23
2018-06-20T09:44:31.847Z,62.89
2018-06-20T09:46:57.807Z,63.22
2018-06-20T09:49:23.868Z,63.07
2018-06-20T09:51:49.836Z,62.75
2018-06-20T09:54:15.902Z,62.27
2018-06-20T09:56:41.853Z,62.36
2018-06-20T09:59:07.837Z,62.87
2018-06-20T10:01:33.826Z,62.61
2018-06-20T10:03:59.754Z,63.37
2018-06-20T10:06:25.733Z,63.08
2018-06-20T10:08:51.720Z,63.19
2018-06-20T10:11:17.740Z,62.93
2018-06-20T10:13:43.680Z,62.94
2018-06-20T10:16:09.684Z,63.45
2018-06-20T10:18:35.681Z,62.80
2018-06-20T10:21:01.709Z,62.59
2018-06-20T10:23:27.668Z,62.87
2018-06-20T10:25:54.637Z,63.34
2018-06-20T10:28:20.630Z,62.59
2018-06-20T10:30:46.614Z,63.16
2018-06-20T10:33:12.615Z,63.42
2018-06-20T10:35:38.593Z,62.41
2018-06-20T10:38:04.597Z,63.36
2018-06-20T10:40:30.575Z,62.68
2018-06-20T10:42:56.569Z,62.46
2018-06-20T10:45:22.628Z,62.20
2018-06-20T10:47:48.598Z,63.63
2018-06-20T10:50:14.643Z,63.01
2018-06-20T10:52:40.640Z,63.09
2018-06-20T10:55:06.619Z,63.05
2018-06-20T10:57:32.600Z,62.48
2018-06-20T10:59:58.557Z,62.64
2018-06-20T11:02:24.546Z,62.50
2018-06-20T11:04:50.539Z,63.58
2018-06-20T11:07:16.554Z,63.31
2018-06-20T11:09:42.532Z,63.32
2018-06-20T11:12:08.488Z,62.73
2018-06-20T11:14:34.514Z,62.99
2018-06-20T11:17:00.543Z,63.21
2018-06-20T11:19:26.501Z,63.15
2018-06-20T11:21:52.568Z,63.07
2018-06-20T11:24:18.554Z,63.68
2018-06-20T11:26:44.540Z,62.35
2018-06-20T11:29:10.582Z,63.59
2018-06-20T11:31:36.500Z,63.79
2018-06-20T11:34:02.472Z,63.60
2018-06-20T11:36:28.458Z,63.76
2018-06-20T11:38:54.436Z,64.22
2018-06-20T11:41:20.382Z,63.84
2018-06-20T11:43:46.362Z,64.39
2018-06-20T11:46:12.359Z,63.49
2018-06-20T11:48:38.452Z,64.13
2018-06-20T11:51:04.431Z,63.98
2018-06-20T11:53:30.404Z,63.53
2018-06-20T11:55:56.359Z,63.68
2018-06-20T11:58:22.323Z,63.15
2018-06-20T12:00:48.320Z,63.64
2018-06-20T12:03:14.301Z,63.24
2018-06-20T12:05:40.294Z,63.12
2018-06-20T12:08:06.262Z,63.03
2018-06-20T12:10:32.249Z,63.91
2018-06-20T12:12:58.200Z,63.21
2018-06-20T12:15:24.156Z,64.04
2018-06-20T12:17:50.124Z,63.76
2018-06-20T12:20:16.086Z,63.22
2018-06-20T12:22:42.011Z,63.41
2018-06-20T12:25:07.981Z,63.23
2018-06-20T12:27:33.937Z,64.14
2018-06-20T12:29:59.936Z,64.15
2018-06-20T12:32:25.929Z,64.07
2018-06-20T12:34:51.894Z,63.32
2018-06-20T12:37:17.848Z,63.79
2018-06-20T12:39:43.803Z,63.92
2018-06-20T12:42:09.777Z,64.13
2018-06-20T12:44:35.759Z,63.83
2018-06-20T12:47:01.784Z,63.50
2018-06-20T12:49:27.748Z,64.20
2018-06-20T12:51:53.742Z,64.12
2018-06-20T12:54:19.708Z,63.38
2018-06-20T12:56:45.692Z,64.50
2018-06-20T12:59:11.656Z,64.47
2018-06-20T13:01:37.659Z,63.71
2018-06-20T13:04:03.695Z,63.29
2018-06-20T13:06:29.600Z,64.09
2018-06-20T13:08:55.565Z,64.45
2018-06-20T13:11:21.551Z,63.49
2018-06-20T13:13:47.530Z,63.46
2018-06-20T13:16:13.529Z,63.84
2018-06-20T13:18:39.521Z,63.93
2018-06-20T13:21:05.536Z,63.71
2018-06-20T13:23:31.514Z,64.55
2018-06-20T13:25:57.492Z,63.50
2018-06-20T13:28:23.489Z,63.85
2018-06-20T13:30:49.456Z,63.61
2018-06-20T13:33:15.421Z,63.53
2018-06-20T13:35:41.381Z,64.47
2018-06-20T13:38:07.391Z,64.51
2018-06-20T13:40:33.396Z,64.26
2018-06-20T13:42:59.390Z,64.08
2018-06-20T13:45:25.476Z,64.56
2018-06-20T13:47:51.478Z,64.30
2018-06-20T13:50:18.542Z,64.43
2018-06-20T13:52:45.580Z,64.03
2018-06-20T13:55:11.617Z,63.71
2018-06-20T13:57:37.674Z,64.35
2018-06-20T14:00:03.662Z,63.59
2018-06-20T14:02:29.746Z,64.23
2018-06-20T14:04:55.752Z,63.46
2018-06-20T14:07:21.755Z,64.74
2018-06-20T14:09:47.737Z,64.51
2018-06-20T14:12:13.724Z,64.33
2018-06-20T14:14:39.692Z,63.97
2018-06-20T14:17:05.649Z,63.70
2018-06-20T14:19:31.719Z,64.15
2018-06-20T14:21:58.866Z,64.76
2018-06-20T14:24:24.836Z,64.51
2018-06-20T14:26:50.806Z,64.19
2018-06-20T14:29:16.782Z,63.69
2018-06-20T14:31:42.788Z,63.76
2018-06-20T14:34:08.744Z,64.27
2018-06-20T14:36:34.735Z,65.00
2018-06-20T14:39:00.699Z,64.12
2018-06-20T14:41:26.657Z,63.38
2018-06-20T14:43:52.653Z,63.60
2018-06-20T14:46:18.646Z,63.35
2018-06-20T14:48:44.681Z,64.49
2018-06-20T14:51:10.653Z,64.27
2018-06-20T14:53:36.616Z,64.34
2018-06-20T14:56:02.575Z,64.71
2018-06-20T14:58:28.535Z,64.57
2018-06-20T15:00:54.571Z,64.47
2018-06-20T15:03:20.568Z,64.29
2018-06-20T15:05:46.528Z,64.15
2018-06-20T15:08:12.496Z,63.91
2018-06-20T15:10:38.469Z,64.64
2018-06-20T15:13:04.461Z,63.98
2018-06-20T15:15:30.491Z,63.85
2018-06-20T15:17:56.461Z,63.78
2018-06-20T15:20:22.448Z,64.22
2018-06-20T15:22:48.419Z,64.33
2018-06-20T15:25:14.367Z,64.62
2018-06-20T15:27:40.349Z,64.26
2018-06-20T15:30:06.325Z,63.90
2018-06-20T15:32:32.291Z,64.73
2018-06-20T15:34:58.303Z,64.12
2018-06-20T15:37:24.260Z,63.95
2018-06-20T15:39:50.228Z,63.81
2018-06-20T15:42:16.206Z,64.09
2018-06-20T15:44:42.216Z,63.73
2018-06-20T15:47:08.179Z,63.96
2018-06-20T15:49:34.151Z,64.62
2018-06-20T15:52:00.116Z,65.07
2018-06-20T15:54:26.124Z,64.79
2018-06-20T15:56:52.104Z,64.88
2018-06-20T15:59:18.058Z,64.32
2018-06-20T16:01:44.021Z,64.77
2018-06-20T16:04:10.001Z,64.54
2018-06-20T16:06:35.979Z,64.51
2018-06-20T16:09:01.985Z,63.55
2018-06-20T16:11:27.988Z,64.44
2018-06-20T16:13:53.958Z,64.91
2018-06-20T16:16:19.995Z,64.54
2018-06-20T16:18:45.974Z,64.63
2018-06-20T16:21:12.040Z,65.11
2018-06-20T16:23:37.991Z,64.88
2018-06-20T16:26:03.977Z,64.22
2018-06-20T16:28:29.951Z,64.05
2018-06-20T16:30:56.005Z,64.19
2018-06-20T16:33:22.081Z,64.32
2018-06-20T16:35:48.056Z,64.39
2018-06-20T16:38:14.013Z,63.90
2018-06-20T16:40:40.150Z,63.91
2018-06-20T16:43:06.132Z,64.31
2018-06-20T16:45:32.102Z,63.97
2018-06-20T16:47:58.068Z,63.60
2018-06-20T16:50:24.025Z,63.89
2018-06-20T16:52:50.016Z,63.93
2018-06-20T16:55:15.994Z,64.43
2018-06-20T16:57:41.957Z,64.36
2018-06-20T17:00:07.963Z,64.77
2018-06-20T17:02:33.990Z,64.09
2018-06-20T17:04:59.970Z,64.26
2018-06-20T17:07:25.983Z,63.66
2018-06-20T17:09:51.965Z,64.63
2018-06-20T17:12:17.998Z,63.91
2018-06-20T17:14:43.976Z,63.31
2018-06-20T17:17:09.980Z,64.81
2018-06-20T17:19:35.988Z,63.65
2018-06-20T17:22:02.010Z,63.69
2018-06-20T17:24:27.990Z,63.64
2018-06-20T17:26:53.982Z,63.54
2018-06-20T17:29:19.921Z,64.09
2018-06-20T17:31:45.919Z,63.21
2018-06-20T17:34:11.903Z,63.61
2018-06-20T17:36:37.893Z,63.85
2018-06-20T17:39:03.903Z,64.04
2018-06-20T17:41:29.906Z,64.04
2018-06-20T17:43:56.001Z,63.91
2018-06-20T17:46:22.047Z,64.36
2018-06-20T17:48:47.968Z,64.44
2018-06-20T17:51:13.971Z,63.47
2018-06-20T17:53:39.940Z,63.32
2018-06-20T17:56:05.911Z,64.26
2018-06-20T17:58:31.903Z,63.95
2018-06-20T18:00:57.895Z,64.40
2018-06-20T18:03:23.867Z,63.78
2018-06-20T18:05:49.844Z,63.28
2018-06-20T18:08:15.830Z,63.55
2018-06-20T18:10:41.800Z,64.07
2018-06-20T18:13:07.834Z,63.44
2018-06-20T18:15:33.844Z,63.38
2018-06-20T18:17:59.840Z,64.04
2018-06-20T18:20:25.824Z,64.63
2018-06-20T18:22:51.828Z,64.40
2018-06-20T18:25:17.798Z,64.64
2018-06-20T18:27:43.793Z,63.74
2018-06-20T18:30:09.806Z,64.37
2018-06-20T18:32:35.791Z,64.79
2018-06-20T18:35:01.794Z,64.08
2018-06-20T18:37:27.808Z,64.40
2018-06-20T18:39:53.786Z,63.65
2018-06-20T18:42:19.749Z,64.12
2018-06-20T18:44:45.734Z,63.95
2018-06-20T18:47:11.723Z,63.98
2018-06-20T18:49:37.713Z,64.57
2018-06-20T18:52:03.668Z,63.70
2018-06-20T18:54:29.667Z,64.10
2018-06-20T18:56:55.685Z,64.13
2018-06-20T18:59:21.664Z,64.84
2018-06-20T19:01:47.646Z,64.80
2018-06-20T19:04:13.621Z,64.06
2018-06-20T19:06:39.607Z,64.69
2018-06-20T19:09:05.733Z,64.90
2018-06-20T19:11:31.597Z,64.59
2018-06-20T19:13:57.558Z,64.85
2018-06-20T19:16:23.513Z,63.80
2018-06-20T19:18:49.475Z,64.68
2018-06-20T19:21:15.456Z,64.22
2018-06-20T19:23:41.442Z,63.65
2018-06-20T19:26:07.421Z,64.15
2018-06-20T19:28:33.393Z,64.18
2018-06-20T19:30:59.457Z,63.16
2018-06-20T19:33:25.446Z,64.27
2018-06-20T19:35:51.465Z,64.04
2018-06-20T19:38:17.469Z,64.44
2018-06-20T19:40:44.985Z,65.14
2018-06-20T19:43:10.990Z,63.93
2018-06-20T19:45:36.996Z,64.44
2018-06-20T19:48:02.959Z,63.61
2018-06-20T19:50:28.936Z,63.76
2018-06-20T19:52:54.944Z,62.54
2018-06-20T19:55:20.952Z,62.70
2018-06-20T19:57:47.018Z,62.25
2018-06-20T20:00:13.004Z,63.24
2018-06-20T20:02:39.145Z,63.46
2018-06-20T20:05:05.264Z,62.27
2018-06-20T20:07:31.338Z,61.91
2018-06-20T20:09:57.324Z,61.98
2018-06-20T20:12:23.394Z,61.53
2018-06-20T20:14:49.489Z,61.75
2018-06-20T20:17:15.427Z,62.84
2018-06-20T20:19:41.433Z,61.23
2018-06-20T20:22:07.424Z,62.17
2018-06-20T20:24:33.380Z,60.75
2018-06-20T20:26:59.488Z,61.36
2018-06-20T20:29:25.503Z,61.56
2018-06-20T20:31:51.478Z,61.92
2018-06-20T20:34:17.473Z,61.17
2018-06-20T20:36:43.448Z,62.09
2018-06-20T20:39:09.448Z,61.12
2018-06-20T20:41:35.404Z,61.04
2018-06-20T20:44:01.360Z,60.83
2018-06-20T20:46:27.364Z,61.12
2018-06-20T20:48:53.327Z,59.92
2018-06-20T20:51:19.288Z,59.59
2018-06-20T20:53:45.260Z,60.77
2018-06-20T20:56:11.257Z,60.32
2018-06-20T20:58:37.376Z,60.05
2018-06-20T21:01:03.337Z,60.80
2018-06-20T21:03:29.299Z,59.19
2018-06-20T21:05:55.332Z,59.70
2018-06-20T21:08:21.301Z,59.80
2018-06-20T21:10:47.273Z,59.77
2018-06-20T21:13:13.272Z,59.15
2018-06-20T21:15:39.340Z,59.58
2018-06-20T21:18:05.307Z,59.54
2018-06-20T21:20:31.266Z,60.95
2018-06-20T21:22:57.267Z,60.41
2018-06-20T21:25:23.236Z,59.50
2018-06-20T21:27:49.274Z,59.76
2018-06-20T21:30:15.254Z,58.72
2018-06-20T21:32:41.216Z,58.85
2018-06-20T21:35:07.206Z,60.95
2018-06-20T21:37:33.245Z,59.68
2018-06-20T21:39:59.238Z,59.84
2018-06-20T21:42:25.222Z,59.73
2018-06-20T21:44:51.191Z,60.35
2018-06-20T21:47:17.152Z,58.70
2018-06-20T21:49:43.150Z,59.08
2018-06-20T21:52:09.120Z,59.71
2018-06-20T21:54:35.078Z,59.20
2018-06-20T21:57:01.061Z,60.37
2018-06-20T21:59:27.029Z,59.55
2018-06-20T22:01:53.091Z,59.21
2018-06-20T22:04:19.052Z,58.82
2018-06-20T22:06:45.023Z,59.75
2018-06-20T22:09:11.021Z,59.15
2018-06-20T22:11:36.982Z,59.64
2018-06-20T22:14:02.955Z,61.87
2018-06-20T22:16:28.938Z,60.88
2018-06-20T22:18:54.912Z,60.67
2018-06-20T22:21:21.103Z,62.69
2018-06-20T22:23:47.076Z,60.94
2018-06-20T22:26:13.053Z,61.78
2018-06-20T22:28:39.004Z,60.64
2018-06-20T22:31:04.976Z,61.14
2018-06-20T22:33:30.953Z,60.93
2018-06-20T22:35:56.934Z,60.70
2018-06-20T22:38:22.887Z,63.17
2018-06-20T22:40:50.435Z,60.82
2018-06-20T22:43:16.424Z,61.34
2018-06-20T22:45:42.419Z,60.78
2018-06-20T22:48:08.382Z,60.58
2018-06-20T22:50:34.347Z,61.20
2018-06-20T22:53:00.313Z,61.63
2018-06-20T22:55:26.316Z,61.00
2018-06-20T22:57:52.278Z,61.50
2018-06-20T23:00:18.254Z,60.61
2018-06-20T23:02:44.205Z,60.34
2018-06-20T23:05:10.189Z,60.32
2018-06-20T23:07:36.153Z,60.56
2018-06-20T23:10:02.110Z,60.75
2018-06-20T23:12:28.076Z,60.45
2018-06-20T23:14:54.592Z,61.07
2018-06-20T23:17:20.824Z,61.15
2018-06-20T23:19:46.797Z,61.15
2018-06-20T23:22:12.777Z,60.36
2018-06-20T23:24:38.732Z,60.64
2018-06-20T23:27:04.702Z,62.03
2018-06-20T23:29:30.672Z,61.59
2018-06-20T23:31:56.638Z,61.75
2018-06-20T23:34:22.617Z,62.13
2018-06-20T23:36:48.577Z,62.74
2018-06-20T23:39:14.525Z,61.27
2018-06-20T23:41:40.530Z,62.33
2018-06-20T23:44:06.476Z,62.03
2018-06-20T23:46:32.436Z,61.71
2018-06-20T23:48:58.406Z,61.58
2018-06-20T23:51:24.372Z,63.21
2018-06-20T23:53:50.359Z,61.91
2018-06-20T23:56:16.426Z,62.63
2018-06-20T23:58:42.392Z,61.09
